sensor_id;sensor_type;location;lat;lon;timestamp;P1;durP1;ratioP1;P2;durP2;ratioP2
16870;SDS011;8552;48.120;-1.456;2023-04-03T00:01:37;8.40;;;3.53;;
16870;SDS011;8552;48.120;-1.456;2023-04-03T00:04:04;7.63;;;3.20;;
16870;SDS011;8552;48.120;-1.456;2023-04-03T00:06:30;10.37;;;3.40;;
16870;SDS011;8552;48.120;-1.456;2023-04-03T00:08:57;9.00;;;3.93;;
16870;SDS011;8552;48.120;-1.456;2023-04-03T00:11:22;8.57;;;3.07;;
16870;SDS011;8552;48.120;-1.456;2023-04-03T00:13:49;14.10;;;4.57;;
16870;SDS011;8552;48.120;-1.456;2023-04-03T00:16:15;7.17;;;3.80;;
16870;SDS011;8552;48.120;-1.456;2023-04-03T00:18:41;12.17;;;3.50;;
16870;SDS011;8552;48.120;-1.456;2023-04-03T00:21:07;7.23;;;3.20;;
16870;SDS011;8552;48.120;-1.456;2023-04-03T00:23:35;9.07;;;3.20;;
16870;SDS011;8552;48.120;-1.456;2023-04-03T00:26:00;11.13;;;3.50;;
16870;SDS011;8552;48.120;-1.456;2023-04-03T00:28:26;7.10;;;4.00;;
16870;SDS011;8552;48.120;-1.456;2023-04-03T00:30:52;11.93;;;4.00;;
16870;SDS011;8552;48.120;-1.456;2023-04-03T00:33:18;13.67;;;3.83;;
16870;SDS011;8552;48.120;-1.456;2023-04-03T00:35:47;8.63;;;3.10;;
16870;SDS011;8552;48.120;-1.456;2023-04-03T00:38:14;9.93;;;3.17;;
16870;SDS011;8552;48.120;-1.456;2023-04-03T00:40:44;12.63;;;4.13;;
16870;SDS011;8552;48.120;-1.456;2023-04-03T00:43:12;7.70;;;2.67;;
16870;SDS011;8552;48.120;-1.456;2023-04-03T00:45:41;12.73;;;3.73;;
16870;SDS011;8552;48.120;-1.456;2023-04-03T00:48:10;11.93;;;3.30;;
16870;SDS011;8552;48.120;-1.456;2023-04-03T00:50:40;11.90;;;3.00;;
16870;SDS011;8552;48.120;-1.456;2023-04-03T00:53:09;9.30;;;3.20;;
16870;SDS011;8552;48.120;-1.456;2023-04-03T00:55:39;6.93;;;2.73;;
16870;SDS011;8552;48.120;-1.456;2023-04-03T00:58:06;8.03;;;3.20;;
16870;SDS011;8552;48.120;-1.456;2023-04-03T01:00:33;4.20;;;2.73;;
16870;SDS011;8552;48.120;-1.456;2023-04-03T01:03:00;8.07;;;2.83;;
16870;SDS011;8552;48.120;-1.456;2023-04-03T01:05:26;7.30;;;3.47;;
16870;SDS011;8552;48.120;-1.456;2023-04-03T01:07:52;8.57;;;4.00;;
16870;SDS011;8552;48.120;-1.456;2023-04-03T01:10:18;9.47;;;2.87;;
16870;SDS011;8552;48.120;-1.456;2023-04-03T01:12:46;7.37;;;2.60;;
16870;SDS011;8552;48.120;-1.456;2023-04-03T01:15:15;10.33;;;3.10;;
16870;SDS011;8552;48.120;-1.456;2023-04-03T01:17:47;6.80;;;3.50;;
16870;SDS011;8552;48.120;-1.456;2023-04-03T01:25:30;7.57;;;2.57;;
16870;SDS011;8552;48.120;-1.456;2023-04-03T01:27:56;11.57;;;4.37;;
16870;SDS011;8552;48.120;-1.456;2023-04-03T01:30:23;7.33;;;3.07;;
16870;SDS011;8552;48.120;-1.456;2023-04-03T01:32:57;14.03;;;3.67;;
16870;SDS011;8552;48.120;-1.456;2023-04-03T01:35:22;13.40;;;3.50;;
16870;SDS011;8552;48.120;-1.456;2023-04-03T01:37:48;7.33;;;2.93;;
16870;SDS011;8552;48.120;-1.456;2023-04-03T01:40:14;6.53;;;2.90;;
16870;SDS011;8552;48.120;-1.456;2023-04-03T01:42:40;18.13;;;3.83;;
16870;SDS011;8552;48.120;-1.456;2023-04-03T01:45:05;7.07;;;3.20;;
16870;SDS011;8552;48.120;-1.456;2023-04-03T01:47:31;6.70;;;3.13;;
16870;SDS011;8552;48.120;-1.456;2023-04-03T01:49:57;9.90;;;3.03;;
16870;SDS011;8552;48.120;-1.456;2023-04-03T01:52:23;9.90;;;3.70;;
16870;SDS011;8552;48.120;-1.456;2023-04-03T01:54:49;9.10;;;2.73;;
16870;SDS011;8552;48.120;-1.456;2023-04-03T01:57:15;6.50;;;2.80;;
16870;SDS011;8552;48.120;-1.456;2023-04-03T01:59:41;12.63;;;4.47;;
16870;SDS011;8552;48.120;-1.456;2023-04-03T02:02:07;5.93;;;2.57;;
16870;SDS011;8552;48.120;-1.456;2023-04-03T02:04:33;9.80;;;3.47;;
16870;SDS011;8552;48.120;-1.456;2023-04-03T02:06:58;7.73;;;2.90;;
16870;SDS011;8552;48.120;-1.456;2023-04-03T02:09:24;9.37;;;3.00;;
16870;SDS011;8552;48.120;-1.456;2023-04-03T02:11:51;8.87;;;3.13;;
16870;SDS011;8552;48.120;-1.456;2023-04-03T02:14:17;6.93;;;2.83;;
16870;SDS011;8552;48.120;-1.456;2023-04-03T02:16:43;10.03;;;3.63;;
16870;SDS011;8552;48.120;-1.456;2023-04-03T02:19:08;9.93;;;3.40;;
16870;SDS011;8552;48.120;-1.456;2023-04-03T02:21:34;7.30;;;2.83;;
16870;SDS011;8552;48.120;-1.456;2023-04-03T02:24:00;10.30;;;2.63;;
16870;SDS011;8552;48.120;-1.456;2023-04-03T02:26:26;9.27;;;3.40;;
16870;SDS011;8552;48.120;-1.456;2023-04-03T02:28:51;7.13;;;2.33;;
16870;SDS011;8552;48.120;-1.456;2023-04-03T02:31:17;10.13;;;3.23;;
16870;SDS011;8552;48.120;-1.456;2023-04-03T02:33:43;9.23;;;3.77;;
16870;SDS011;8552;48.120;-1.456;2023-04-03T02:36:09;8.63;;;3.63;;
16870;SDS011;8552;48.120;-1.456;2023-04-03T02:38:35;6.83;;;2.77;;
16870;SDS011;8552;48.120;-1.456;2023-04-03T02:41:05;10.90;;;2.87;;
16870;SDS011;8552;48.120;-1.456;2023-04-03T02:43:32;5.70;;;3.37;;
16870;SDS011;8552;48.120;-1.456;2023-04-03T02:45:58;10.80;;;3.30;;
16870;SDS011;8552;48.120;-1.456;2023-04-03T02:48:23;16.30;;;3.67;;
16870;SDS011;8552;48.120;-1.456;2023-04-03T02:50:50;6.57;;;2.77;;
16870;SDS011;8552;48.120;-1.456;2023-04-03T02:53:16;11.07;;;3.67;;
16870;SDS011;8552;48.120;-1.456;2023-04-03T02:55:43;10.20;;;3.80;;
16870;SDS011;8552;48.120;-1.456;2023-04-03T02:58:09;14.13;;;3.97;;
16870;SDS011;8552;48.120;-1.456;2023-04-03T03:00:35;12.33;;;3.07;;
16870;SDS011;8552;48.120;-1.456;2023-04-03T03:03:01;8.03;;;2.90;;
16870;SDS011;8552;48.120;-1.456;2023-04-03T03:05:27;6.70;;;3.50;;
16870;SDS011;8552;48.120;-1.456;2023-04-03T03:07:53;7.87;;;3.10;;
16870;SDS011;8552;48.120;-1.456;2023-04-03T03:10:19;7.90;;;2.63;;
16870;SDS011;8552;48.120;-1.456;2023-04-03T03:12:45;6.13;;;2.73;;
16870;SDS011;8552;48.120;-1.456;2023-04-03T03:15:11;7.10;;;2.93;;
16870;SDS011;8552;48.120;-1.456;2023-04-03T03:17:37;7.83;;;2.53;;
16870;SDS011;8552;48.120;-1.456;2023-04-03T03:20:03;7.07;;;2.80;;
16870;SDS011;8552;48.120;-1.456;2023-04-03T03:22:30;9.77;;;3.00;;
16870;SDS011;8552;48.120;-1.456;2023-04-03T03:24:56;7.33;;;2.63;;
16870;SDS011;8552;48.120;-1.456;2023-04-03T03:27:22;10.53;;;2.97;;
16870;SDS011;8552;48.120;-1.456;2023-04-03T03:29:48;13.73;;;3.60;;
16870;SDS011;8552;48.120;-1.456;2023-04-03T03:32:14;8.00;;;3.00;;
16870;SDS011;8552;48.120;-1.456;2023-04-03T03:34:40;5.60;;;2.77;;
16870;SDS011;8552;48.120;-1.456;2023-04-03T03:37:06;13.07;;;4.33;;
16870;SDS011;8552;48.120;-1.456;2023-04-03T03:39:31;13.33;;;3.70;;
16870;SDS011;8552;48.120;-1.456;2023-04-03T03:41:57;8.87;;;3.17;;
16870;SDS011;8552;48.120;-1.456;2023-04-03T03:44:23;9.20;;;3.37;;
16870;SDS011;8552;48.120;-1.456;2023-04-03T03:46:48;7.30;;;3.10;;
16870;SDS011;8552;48.120;-1.456;2023-04-03T03:49:14;6.27;;;3.07;;
16870;SDS011;8552;48.120;-1.456;2023-04-03T03:51:40;9.40;;;4.70;;
16870;SDS011;8552;48.120;-1.456;2023-04-03T03:54:06;6.10;;;2.87;;
16870;SDS011;8552;48.120;-1.456;2023-04-03T03:56:32;8.40;;;2.67;;
16870;SDS011;8552;48.120;-1.456;2023-04-03T03:58:58;7.10;;;3.23;;
16870;SDS011;8552;48.120;-1.456;2023-04-03T04:01:24;7.73;;;3.47;;
16870;SDS011;8552;48.120;-1.456;2023-04-03T04:03:50;8.07;;;2.77;;
16870;SDS011;8552;48.120;-1.456;2023-04-03T04:06:16;4.93;;;3.27;;
16870;SDS011;8552;48.120;-1.456;2023-04-03T04:08:41;9.83;;;3.07;;
16870;SDS011;8552;48.120;-1.456;2023-04-03T04:11:07;9.60;;;3.03;;
16870;SDS011;8552;48.120;-1.456;2023-04-03T04:13:33;10.20;;;3.27;;
16870;SDS011;8552;48.120;-1.456;2023-04-03T04:15:59;5.93;;;3.60;;
16870;SDS011;8552;48.120;-1.456;2023-04-03T04:18:25;6.83;;;3.10;;
16870;SDS011;8552;48.120;-1.456;2023-04-03T04:20:51;5.73;;;3.00;;
16870;SDS011;8552;48.120;-1.456;2023-04-03T04:23:17;7.20;;;3.10;;
16870;SDS011;8552;48.120;-1.456;2023-04-03T04:25:44;11.03;;;3.60;;
16870;SDS011;8552;48.120;-1.456;2023-04-03T04:28:11;13.43;;;4.00;;
16870;SDS011;8552;48.120;-1.456;2023-04-03T04:30:37;9.00;;;4.17;;
16870;SDS011;8552;48.120;-1.456;2023-04-03T04:33:03;9.67;;;3.93;;
16870;SDS011;8552;48.120;-1.456;2023-04-03T04:35:29;13.73;;;4.83;;
16870;SDS011;8552;48.120;-1.456;2023-04-03T04:37:54;13.73;;;5.10;;
16870;SDS011;8552;48.120;-1.456;2023-04-03T04:40:21;7.87;;;4.37;;
16870;SDS011;8552;48.120;-1.456;2023-04-03T04:42:47;11.10;;;4.70;;
16870;SDS011;8552;48.120;-1.456;2023-04-03T04:45:13;11.37;;;5.27;;
16870;SDS011;8552;48.120;-1.456;2023-04-03T04:47:39;12.83;;;4.33;;
16870;SDS011;8552;48.120;-1.456;2023-04-03T04:50:05;11.77;;;4.10;;
16870;SDS011;8552;48.120;-1.456;2023-04-03T04:52:31;6.80;;;4.20;;
16870;SDS011;8552;48.120;-1.456;2023-04-03T04:54:57;12.77;;;5.20;;
16870;SDS011;8552;48.120;-1.456;2023-04-03T04:57:23;14.80;;;5.27;;
16870;SDS011;8552;48.120;-1.456;2023-04-03T04:59:48;9.10;;;5.87;;
16870;SDS011;8552;48.120;-1.456;2023-04-03T05:02:14;12.07;;;5.50;;
16870;SDS011;8552;48.120;-1.456;2023-04-03T05:04:40;12.90;;;5.60;;
16870;SDS011;8552;48.120;-1.456;2023-04-03T05:07:06;9.60;;;4.87;;
16870;SDS011;8552;48.120;-1.456;2023-04-03T05:09:31;15.73;;;5.57;;
16870;SDS011;8552;48.120;-1.456;2023-04-03T05:11:57;10.87;;;5.57;;
16870;SDS011;8552;48.120;-1.456;2023-04-03T05:14:23;11.47;;;5.10;;
16870;SDS011;8552;48.120;-1.456;2023-04-03T05:16:48;16.80;;;5.47;;
16870;SDS011;8552;48.120;-1.456;2023-04-03T05:19:18;11.03;;;5.33;;
16870;SDS011;8552;48.120;-1.456;2023-04-03T05:21:44;15.43;;;5.57;;
16870;SDS011;8552;48.120;-1.456;2023-04-03T05:24:10;9.80;;;6.17;;
16870;SDS011;8552;48.120;-1.456;2023-04-03T05:26:35;10.83;;;5.50;;
16870;SDS011;8552;48.120;-1.456;2023-04-03T05:29:01;7.23;;;5.23;;
16870;SDS011;8552;48.120;-1.456;2023-04-03T05:31:27;15.47;;;7.70;;
16870;SDS011;8552;48.120;-1.456;2023-04-03T05:33:54;9.27;;;5.87;;
16870;SDS011;8552;48.120;-1.456;2023-04-03T05:36:20;10.23;;;5.93;;
16870;SDS011;8552;48.120;-1.456;2023-04-03T05:38:47;10.37;;;5.37;;
16870;SDS011;8552;48.120;-1.456;2023-04-03T05:41:13;12.40;;;6.57;;
16870;SDS011;8552;48.120;-1.456;2023-04-03T05:43:39;18.20;;;9.07;;
16870;SDS011;8552;48.120;-1.456;2023-04-03T05:46:09;9.53;;;6.67;;
16870;SDS011;8552;48.120;-1.456;2023-04-03T05:48:39;11.77;;;6.73;;
16870;SDS011;8552;48.120;-1.456;2023-04-03T05:51:05;14.90;;;7.60;;
16870;SDS011;8552;48.120;-1.456;2023-04-03T05:53:33;11.00;;;7.80;;
16870;SDS011;8552;48.120;-1.456;2023-04-03T05:56:04;10.63;;;7.03;;
16870;SDS011;8552;48.120;-1.456;2023-04-03T05:58:30;10.93;;;7.13;;
16870;SDS011;8552;48.120;-1.456;2023-04-03T06:00:56;11.53;;;6.57;;
16870;SDS011;8552;48.120;-1.456;2023-04-03T06:03:22;10.33;;;7.40;;
16870;SDS011;8552;48.120;-1.456;2023-04-03T06:05:48;9.50;;;7.00;;
16870;SDS011;8552;48.120;-1.456;2023-04-03T06:08:13;11.53;;;7.17;;
16870;SDS011;8552;48.120;-1.456;2023-04-03T06:10:39;9.53;;;6.83;;
16870;SDS011;8552;48.120;-1.456;2023-04-03T06:13:05;11.00;;;7.60;;
16870;SDS011;8552;48.120;-1.456;2023-04-03T06:15:31;9.87;;;6.63;;
16870;SDS011;8552;48.120;-1.456;2023-04-03T06:17:57;12.77;;;7.60;;
16870;SDS011;8552;48.120;-1.456;2023-04-03T06:20:23;14.40;;;9.07;;
16870;SDS011;8552;48.120;-1.456;2023-04-03T06:22:49;19.17;;;10.13;;
16870;SDS011;8552;48.120;-1.456;2023-04-03T06:25:15;16.20;;;8.77;;
16870;SDS011;8552;48.120;-1.456;2023-04-03T06:27:43;16.20;;;8.53;;
16870;SDS011;8552;48.120;-1.456;2023-04-03T06:30:10;12.40;;;8.67;;
16870;SDS011;8552;48.120;-1.456;2023-04-03T06:32:36;11.93;;;8.10;;
16870;SDS011;8552;48.120;-1.456;2023-04-03T06:35:02;11.60;;;7.83;;
16870;SDS011;8552;48.120;-1.456;2023-04-03T06:37:29;10.67;;;7.80;;
16870;SDS011;8552;48.120;-1.456;2023-04-03T06:39:55;11.43;;;7.67;;
16870;SDS011;8552;48.120;-1.456;2023-04-03T06:42:21;11.63;;;7.83;;
16870;SDS011;8552;48.120;-1.456;2023-04-03T06:44:47;13.13;;;7.83;;
16870;SDS011;8552;48.120;-1.456;2023-04-03T06:47:14;12.57;;;8.90;;
16870;SDS011;8552;48.120;-1.456;2023-04-03T06:49:40;11.23;;;8.57;;
16870;SDS011;8552;48.120;-1.456;2023-04-03T06:52:07;13.80;;;8.37;;
16870;SDS011;8552;48.120;-1.456;2023-04-03T06:54:32;13.00;;;8.40;;
16870;SDS011;8552;48.120;-1.456;2023-04-03T06:56:59;10.87;;;7.73;;
16870;SDS011;8552;48.120;-1.456;2023-04-03T06:59:25;11.53;;;7.03;;
16870;SDS011;8552;48.120;-1.456;2023-04-03T07:01:50;12.67;;;8.40;;
16870;SDS011;8552;48.120;-1.456;2023-04-03T07:04:16;11.93;;;8.73;;
16870;SDS011;8552;48.120;-1.456;2023-04-03T07:06:44;13.50;;;8.40;;
16870;SDS011;8552;48.120;-1.456;2023-04-03T07:09:10;14.27;;;9.50;;
16870;SDS011;8552;48.120;-1.456;2023-04-03T07:11:36;9.53;;;8.07;;
16870;SDS011;8552;48.120;-1.456;2023-04-03T07:14:02;21.93;;;10.37;;
16870;SDS011;8552;48.120;-1.456;2023-04-03T07:16:28;11.50;;;8.43;;
16870;SDS011;8552;48.120;-1.456;2023-04-03T07:18:55;11.20;;;8.00;;
16870;SDS011;8552;48.120;-1.456;2023-04-03T07:21:22;12.03;;;8.60;;
16870;SDS011;8552;48.120;-1.456;2023-04-03T07:23:48;14.43;;;8.37;;
16870;SDS011;8552;48.120;-1.456;2023-04-03T07:26:14;9.23;;;8.13;;
16870;SDS011;8552;48.120;-1.456;2023-04-03T07:28:39;10.27;;;8.13;;
16870;SDS011;8552;48.120;-1.456;2023-04-03T07:31:07;14.13;;;8.57;;
16870;SDS011;8552;48.120;-1.456;2023-04-03T07:33:38;15.93;;;8.20;;
16870;SDS011;8552;48.120;-1.456;2023-04-03T07:36:04;9.37;;;8.40;;
16870;SDS011;8552;48.120;-1.456;2023-04-03T07:38:31;13.07;;;8.57;;
16870;SDS011;8552;48.120;-1.456;2023-04-03T07:40:58;13.77;;;7.83;;
16870;SDS011;8552;48.120;-1.456;2023-04-03T07:43:23;13.33;;;8.63;;
16870;SDS011;8552;48.120;-1.456;2023-04-03T07:45:52;10.00;;;7.93;;
16870;SDS011;8552;48.120;-1.456;2023-04-03T07:48:23;14.07;;;8.67;;
16870;SDS011;8552;48.120;-1.456;2023-04-03T07:50:50;17.93;;;9.03;;
16870;SDS011;8552;48.120;-1.456;2023-04-03T07:53:16;13.10;;;9.30;;
16870;SDS011;8552;48.120;-1.456;2023-04-03T07:55:43;16.03;;;9.50;;
16870;SDS011;8552;48.120;-1.456;2023-04-03T07:58:12;13.30;;;8.70;;
16870;SDS011;8552;48.120;-1.456;2023-04-03T08:00:39;10.60;;;8.50;;
16870;SDS011;8552;48.120;-1.456;2023-04-03T08:03:05;16.77;;;8.57;;
16870;SDS011;8552;48.120;-1.456;2023-04-03T08:05:37;11.67;;;8.80;;
16870;SDS011;8552;48.120;-1.456;2023-04-03T08:08:05;12.23;;;9.03;;
16870;SDS011;8552;48.120;-1.456;2023-04-03T08:10:31;15.20;;;9.97;;
16870;SDS011;8552;48.120;-1.456;2023-04-03T08:12:58;16.53;;;9.43;;
16870;SDS011;8552;48.120;-1.456;2023-04-03T08:15:24;12.20;;;9.47;;
16870;SDS011;8552;48.120;-1.456;2023-04-03T08:17:50;14.73;;;9.80;;
16870;SDS011;8552;48.120;-1.456;2023-04-03T08:20:16;12.53;;;9.17;;
16870;SDS011;8552;48.120;-1.456;2023-04-03T08:22:42;14.33;;;9.20;;
16870;SDS011;8552;48.120;-1.456;2023-04-03T08:25:08;15.37;;;9.63;;
16870;SDS011;8552;48.120;-1.456;2023-04-03T08:27:34;19.70;;;9.00;;
16870;SDS011;8552;48.120;-1.456;2023-04-03T08:30:00;12.87;;;8.23;;
16870;SDS011;8552;48.120;-1.456;2023-04-03T08:32:26;15.47;;;9.83;;
16870;SDS011;8552;48.120;-1.456;2023-04-03T08:34:52;13.30;;;8.40;;
16870;SDS011;8552;48.120;-1.456;2023-04-03T08:37:18;13.07;;;8.37;;
16870;SDS011;8552;48.120;-1.456;2023-04-03T08:39:44;14.87;;;9.53;;
16870;SDS011;8552;48.120;-1.456;2023-04-03T08:45:02;13.33;;;8.60;;
16870;SDS011;8552;48.120;-1.456;2023-04-03T08:50:15;15.20;;;9.60;;
16870;SDS011;8552;48.120;-1.456;2023-04-03T08:52:50;13.10;;;8.63;;
16870;SDS011;8552;48.120;-1.456;2023-04-03T08:58:16;15.63;;;9.33;;
16870;SDS011;8552;48.120;-1.456;2023-04-03T09:00:47;13.03;;;9.43;;
16870;SDS011;8552;48.120;-1.456;2023-04-03T09:03:20;13.03;;;8.63;;
16870;SDS011;8552;48.120;-1.456;2023-04-03T09:08:26;14.67;;;7.97;;
16870;SDS011;8552;48.120;-1.456;2023-04-03T09:10:58;13.63;;;8.73;;
16870;SDS011;8552;48.120;-1.456;2023-04-03T09:21:38;14.97;;;7.90;;
16870;SDS011;8552;48.120;-1.456;2023-04-03T09:24:07;14.10;;;8.60;;
16870;SDS011;8552;48.120;-1.456;2023-04-03T09:26:44;13.40;;;8.33;;
16870;SDS011;8552;48.120;-1.456;2023-04-03T09:29:14;12.77;;;9.37;;
16870;SDS011;8552;48.120;-1.456;2023-04-03T09:31:44;13.50;;;8.33;;
16870;SDS011;8552;48.120;-1.456;2023-04-03T09:34:22;13.93;;;9.00;;
16870;SDS011;8552;48.120;-1.456;2023-04-03T09:36:52;13.70;;;8.90;;
16870;SDS011;8552;48.120;-1.456;2023-04-03T09:39:22;13.97;;;8.33;;
16870;SDS011;8552;48.120;-1.456;2023-04-03T09:41:58;14.67;;;9.37;;
16870;SDS011;8552;48.120;-1.456;2023-04-03T09:44:33;14.43;;;8.73;;
16870;SDS011;8552;48.120;-1.456;2023-04-03T09:47:16;15.27;;;9.00;;
16870;SDS011;8552;48.120;-1.456;2023-04-03T09:49:50;14.37;;;9.00;;
16870;SDS011;8552;48.120;-1.456;2023-04-03T09:52:23;12.43;;;8.27;;
16870;SDS011;8552;48.120;-1.456;2023-04-03T09:54:51;13.30;;;8.63;;
16870;SDS011;8552;48.120;-1.456;2023-04-03T09:57:17;13.43;;;8.73;;
16870;SDS011;8552;48.120;-1.456;2023-04-03T09:59:47;13.40;;;8.93;;
16870;SDS011;8552;48.120;-1.456;2023-04-03T10:04:59;13.70;;;8.67;;
16870;SDS011;8552;48.120;-1.456;2023-04-03T10:07:35;13.70;;;9.20;;
16870;SDS011;8552;48.120;-1.456;2023-04-03T10:10:23;12.87;;;8.93;;
16870;SDS011;8552;48.120;-1.456;2023-04-03T10:13:03;14.27;;;9.73;;
16870;SDS011;8552;48.120;-1.456;2023-04-03T10:15:32;13.53;;;9.73;;
16870;SDS011;8552;48.120;-1.456;2023-04-03T10:29:38;13.43;;;8.57;;
16870;SDS011;8552;48.120;-1.456;2023-04-03T10:35:10;12.97;;;9.67;;
16870;SDS011;8552;48.120;-1.456;2023-04-03T10:38:00;12.00;;;7.97;;
16870;SDS011;8552;48.120;-1.456;2023-04-03T10:48:33;12.60;;;8.60;;
16870;SDS011;8552;48.120;-1.456;2023-04-03T10:51:56;12.43;;;8.32;;
16870;SDS011;8552;48.120;-1.456;2023-04-03T10:54:20;12.48;;;8.82;;
16870;SDS011;8552;48.120;-1.456;2023-04-03T10:56:54;12.70;;;8.60;;
16870;SDS011;8552;48.120;-1.456;2023-04-03T10:59:31;13.27;;;8.95;;
16870;SDS011;8552;48.120;-1.456;2023-04-03T11:02:05;10.90;;;8.48;;
16870;SDS011;8552;48.120;-1.456;2023-04-03T11:04:34;12.95;;;8.68;;
16870;SDS011;8552;48.120;-1.456;2023-04-03T11:09:44;11.23;;;8.30;;
16870;SDS011;8552;48.120;-1.456;2023-04-03T11:12:15;11.32;;;7.97;;
16870;SDS011;8552;48.120;-1.456;2023-04-03T11:14:47;9.90;;;7.72;;
16870;SDS011;8552;48.120;-1.456;2023-04-03T11:19:51;11.00;;;6.95;;
16870;SDS011;8552;48.120;-1.456;2023-04-03T11:22:39;9.07;;;7.22;;
16870;SDS011;8552;48.120;-1.456;2023-04-03T11:27:58;11.68;;;8.05;;
16870;SDS011;8552;48.120;-1.456;2023-04-03T11:30:34;9.02;;;7.38;;
16870;SDS011;8552;48.120;-1.456;2023-04-03T11:36:12;8.55;;;7.10;;
16870;SDS011;8552;48.120;-1.456;2023-04-03T11:38:51;10.65;;;7.65;;
16870;SDS011;8552;48.120;-1.456;2023-04-03T11:41:36;14.40;;;7.55;;
16870;SDS011;8552;48.120;-1.456;2023-04-03T11:44:04;9.27;;;7.32;;
16870;SDS011;8552;48.120;-1.456;2023-04-03T11:46:52;10.18;;;7.63;;
16870;SDS011;8552;48.120;-1.456;2023-04-03T12:06:41;7.30;;;6.15;;
16870;SDS011;8552;48.120;-1.456;2023-04-03T12:08:52;8.73;;;6.70;;
16870;SDS011;8552;48.120;-1.456;2023-04-03T12:11:25;8.32;;;7.43;;
16870;SDS011;8552;48.120;-1.456;2023-04-03T12:16:21;8.13;;;7.15;;
16870;SDS011;8552;48.120;-1.456;2023-04-03T12:21:19;8.05;;;7.20;;
16870;SDS011;8552;48.120;-1.456;2023-04-03T12:24:31;9.07;;;7.45;;
16870;SDS011;8552;48.120;-1.456;2023-04-03T12:29:17;11.90;;;7.10;;
16870;SDS011;8552;48.120;-1.456;2023-04-03T12:41:02;7.85;;;7.05;;
16870;SDS011;8552;48.120;-1.456;2023-04-03T12:46:34;8.20;;;6.70;;
16870;SDS011;8552;48.120;-1.456;2023-04-03T12:49:14;7.15;;;6.45;;
16870;SDS011;8552;48.120;-1.456;2023-04-03T12:51:49;7.45;;;6.60;;
16870;SDS011;8552;48.120;-1.456;2023-04-03T12:54:19;8.88;;;7.13;;
16870;SDS011;8552;48.120;-1.456;2023-04-03T12:56:50;6.72;;;6.13;;
16870;SDS011;8552;48.120;-1.456;2023-04-03T12:59:21;9.77;;;7.45;;
16870;SDS011;8552;48.120;-1.456;2023-04-03T13:02:00;7.60;;;6.90;;
16870;SDS011;8552;48.120;-1.456;2023-04-03T13:04:27;7.60;;;6.90;;
16870;SDS011;8552;48.120;-1.456;2023-04-03T13:06:54;7.07;;;6.30;;
16870;SDS011;8552;48.120;-1.456;2023-04-03T13:09:24;8.02;;;6.82;;
16870;SDS011;8552;48.120;-1.456;2023-04-03T13:12:09;7.45;;;6.18;;
16870;SDS011;8552;48.120;-1.456;2023-04-03T13:14:49;7.38;;;6.68;;
16870;SDS011;8552;48.120;-1.456;2023-04-03T13:17:19;7.40;;;6.78;;
16870;SDS011;8552;48.120;-1.456;2023-04-03T13:19:46;7.60;;;6.88;;
16870;SDS011;8552;48.120;-1.456;2023-04-03T13:25:05;7.45;;;6.38;;
16870;SDS011;8552;48.120;-1.456;2023-04-03T13:27:33;7.72;;;6.80;;
16870;SDS011;8552;48.120;-1.456;2023-04-03T13:29:59;7.35;;;6.38;;
16870;SDS011;8552;48.120;-1.456;2023-04-03T13:32:27;8.15;;;6.43;;
16870;SDS011;8552;48.120;-1.456;2023-04-03T13:34:56;7.53;;;6.47;;
16870;SDS011;8552;48.120;-1.456;2023-04-03T13:37:29;7.43;;;6.72;;
16870;SDS011;8552;48.120;-1.456;2023-04-03T13:42:33;7.78;;;6.97;;
16870;SDS011;8552;48.120;-1.456;2023-04-03T13:47:47;6.97;;;6.20;;
16870;SDS011;8552;48.120;-1.456;2023-04-03T13:50:16;7.10;;;6.40;;
16870;SDS011;8552;48.120;-1.456;2023-04-03T13:55:23;7.15;;;6.30;;
16870;SDS011;8552;48.120;-1.456;2023-04-03T14:00:47;7.22;;;6.60;;
16870;SDS011;8552;48.120;-1.456;2023-04-03T14:06:13;7.45;;;6.75;;
16870;SDS011;8552;48.120;-1.456;2023-04-03T14:08:41;7.47;;;6.78;;
16870;SDS011;8552;48.120;-1.456;2023-04-03T14:11:09;7.93;;;7.13;;
16870;SDS011;8552;48.120;-1.456;2023-04-03T14:13:43;7.07;;;6.40;;
16870;SDS011;8552;48.120;-1.456;2023-04-03T14:16:17;7.82;;;7.03;;
16870;SDS011;8552;48.120;-1.456;2023-04-03T14:18:46;7.68;;;6.93;;
16870;SDS011;8552;48.120;-1.456;2023-04-03T14:21:13;7.05;;;6.35;;
16870;SDS011;8552;48.120;-1.456;2023-04-03T14:23:40;7.88;;;7.07;;
16870;SDS011;8552;48.120;-1.456;2023-04-03T14:26:24;7.18;;;6.47;;
16870;SDS011;8552;48.120;-1.456;2023-04-03T14:28:53;7.35;;;6.65;;
16870;SDS011;8552;48.120;-1.456;2023-04-03T14:31:20;7.55;;;6.85;;
16870;SDS011;8552;48.120;-1.456;2023-04-03T14:33:47;9.38;;;6.90;;
16870;SDS011;8552;48.120;-1.456;2023-04-03T14:36:18;9.23;;;6.63;;
16870;SDS011;8552;48.120;-1.456;2023-04-03T14:38:50;7.95;;;7.10;;
16870;SDS011;8552;48.120;-1.456;2023-04-03T14:41:18;6.38;;;5.88;;
16870;SDS011;8552;48.120;-1.456;2023-04-03T14:43:47;7.50;;;6.80;;
16870;SDS011;8552;48.120;-1.456;2023-04-03T14:46:21;7.80;;;5.82;;
16870;SDS011;8552;48.120;-1.456;2023-04-03T14:48:53;5.32;;;4.85;;
16870;SDS011;8552;48.120;-1.456;2023-04-03T14:51:19;6.85;;;6.18;;
16870;SDS011;8552;48.120;-1.456;2023-04-03T14:53:45;6.50;;;5.35;;
16870;SDS011;8552;48.120;-1.456;2023-04-03T14:58:44;6.40;;;5.82;;
16870;SDS011;8552;48.120;-1.456;2023-04-03T15:01:13;6.35;;;5.75;;
16870;SDS011;8552;48.120;-1.456;2023-04-03T15:03:39;6.60;;;5.60;;
16870;SDS011;8552;48.120;-1.456;2023-04-03T15:06:05;6.35;;;5.75;;
16870;SDS011;8552;48.120;-1.456;2023-04-03T15:08:31;6.03;;;5.53;;
16870;SDS011;8552;48.120;-1.456;2023-04-03T15:10:57;6.55;;;5.70;;
16870;SDS011;8552;48.120;-1.456;2023-04-03T15:13:23;6.43;;;5.80;;
16870;SDS011;8552;48.120;-1.456;2023-04-03T15:15:50;6.53;;;4.85;;
16870;SDS011;8552;48.120;-1.456;2023-04-03T15:18:18;5.05;;;4.65;;
16870;SDS011;8552;48.120;-1.456;2023-04-03T15:20:46;5.88;;;5.28;;
16870;SDS011;8552;48.120;-1.456;2023-04-03T15:23:13;5.55;;;5.00;;
16870;SDS011;8552;48.120;-1.456;2023-04-03T15:25:41;5.15;;;4.65;;
16870;SDS011;8552;48.120;-1.456;2023-04-03T15:28:19;5.75;;;5.22;;
16870;SDS011;8552;48.120;-1.456;2023-04-03T15:31:08;5.65;;;5.15;;
16870;SDS011;8552;48.120;-1.456;2023-04-03T15:33:34;5.20;;;4.20;;
16870;SDS011;8552;48.120;-1.456;2023-04-03T15:36:00;5.28;;;4.78;;
16870;SDS011;8552;48.120;-1.456;2023-04-03T15:38:26;5.45;;;4.95;;
16870;SDS011;8552;48.120;-1.456;2023-04-03T15:40:53;4.78;;;4.38;;
16870;SDS011;8552;48.120;-1.456;2023-04-03T15:43:20;4.82;;;4.40;;
16870;SDS011;8552;48.120;-1.456;2023-04-03T15:45:45;4.68;;;4.28;;
16870;SDS011;8552;48.120;-1.456;2023-04-03T15:48:12;5.10;;;4.35;;
16870;SDS011;8552;48.120;-1.456;2023-04-03T15:50:38;6.10;;;4.47;;
16870;SDS011;8552;48.120;-1.456;2023-04-03T15:53:05;5.53;;;4.85;;
16870;SDS011;8552;48.120;-1.456;2023-04-03T15:55:31;4.70;;;4.18;;
16870;SDS011;8552;48.120;-1.456;2023-04-03T15:57:59;4.53;;;4.13;;
16870;SDS011;8552;48.120;-1.456;2023-04-03T16:00:26;4.38;;;3.97;;
16870;SDS011;8552;48.120;-1.456;2023-04-03T16:02:53;4.32;;;3.92;;
16870;SDS011;8552;48.120;-1.456;2023-04-03T16:05:26;4.97;;;4.47;;
16870;SDS011;8552;48.120;-1.456;2023-04-03T16:07:52;5.07;;;4.57;;
16870;SDS011;8552;48.120;-1.456;2023-04-03T16:10:39;4.72;;;4.32;;
16870;SDS011;8552;48.120;-1.456;2023-04-03T16:13:05;5.80;;;4.93;;
16870;SDS011;8552;48.120;-1.456;2023-04-03T16:15:32;5.93;;;5.32;;
16870;SDS011;8552;48.120;-1.456;2023-04-03T16:18:04;5.90;;;5.30;;
16870;SDS011;8552;48.120;-1.456;2023-04-03T16:20:37;5.22;;;4.80;;
16870;SDS011;8552;48.120;-1.456;2023-04-03T16:23:03;4.93;;;4.50;;
16870;SDS011;8552;48.120;-1.456;2023-04-03T16:25:29;4.70;;;4.30;;
16870;SDS011;8552;48.120;-1.456;2023-04-03T16:27:59;4.97;;;4.50;;
16870;SDS011;8552;48.120;-1.456;2023-04-03T16:30:28;4.78;;;4.38;;
16870;SDS011;8552;48.120;-1.456;2023-04-03T16:32:56;5.35;;;4.85;;
16870;SDS011;8552;48.120;-1.456;2023-04-03T16:35:22;5.65;;;5.00;;
16870;SDS011;8552;48.120;-1.456;2023-04-03T16:37:48;8.38;;;5.03;;
16870;SDS011;8552;48.120;-1.456;2023-04-03T16:40:14;5.43;;;4.85;;
16870;SDS011;8552;48.120;-1.456;2023-04-03T16:42:41;5.10;;;4.60;;
16870;SDS011;8552;48.120;-1.456;2023-04-03T16:45:06;5.72;;;5.13;;